18 de agosto de 2022

Hora Código Tiempo Temp. Visibilidad Cielo nuboso Viento METAR/SPECI
21:30
V
16 °C 10 km+ 5.400 ft 050° 050° 3 kt METAR LFLW 181930Z AUTO 05003KT 9999 SCT044/// BKN054/// OVC076/// ///TCU 16/15 Q1018
21:00
V
17 °C 10 km+ 7.400 ft Var Var 3 kt METAR LFLW 181900Z AUTO VRB03KT 9999 SCT045/// BKN074/// OVC088/// ///CB 17/15 Q1018
20:30
V
17 °C 10 km+ 7.600 ft 020° 020° 6 kt METAR LFLW 181830Z AUTO 02006KT 350V050 9999 FEW043/// SCT058/// OVC076/// ///CB 17/14 Q1017
20:00
V
17 °C 10 km+ 8.600 ft 010° 010° 10 kt METAR LFLW 181800Z AUTO 01010KT 9999 -RA FEW038/// SCT074/// OVC086/// ///CB 17/14 Q1017
19:30
V
19 °C 10 km+ 5.800 ft 340° 340° 7 kt METAR LFLW 181730Z AUTO 34007KT 290V020 9999 -RA FEW039/// BKN058/// BKN070/// ///CB 19/14 Q1017
19:00
V
20 °C 10 km+ 5.400 ft 310° 310° 8 kt METAR LFLW 181700Z AUTO 31008KT 260V360 9999 -RA SCT036/// BKN054/// OVC092/// ///CB 20/13 Q1017 TEMPO TSRA
18:30
V
20 °C 10 km+ 5.400 ft 310° 310° 7 kt METAR LFLW 181630Z AUTO 31007KT 250V360 9999 SCT037/// BKN054/// OVC078/// ///CB 20/13 Q1016 TEMPO TSRA
18:00
V
20 °C 10 km+ 3.400 ft 310° 310° 8 kt METAR LFLW 181600Z AUTO 31008KT 270V350 9999 -RA BKN034/// BKN040/// OVC054/// ///CB 20/13 Q1016 TEMPO TSRA
17:30
V
21 °C 10 km+ 3.400 ft 290° 290° 11 kt METAR LFLW 181530Z AUTO 29011KT 260V330 9999 BKN034/// BKN040/// BKN050/// ///CB 21/13 Q1016 TEMPO TSRA
17:00
V
21 °C 10 km+ 23.000 ft 290° 290° 11 kt METAR LFLW 181500Z AUTO 29011KT 250V330 9999 SCT031/// SCT039/// BKN230/// ///CB 21/13 Q1016 TEMPO TSRA
16:30
V
21 °C 10 km+ - 310° 310° 10 kt METAR LFLW 181430Z AUTO 31010KT 260V350 9999 FEW037/// SCT230/// ///CB 21/13 Q1016 TEMPO SHRA
16:00
V
21 °C 10 km+ 4.300 ft 310° 310° 10 kt METAR LFLW 181400Z AUTO 31010KT 250V350 9999 SCT035/// BKN043/// OVC052/// ///CB 21/13 Q1016 TEMPO SHRA
15:30
V
21 °C 10 km+ 6.000 ft 300° 300° 8 kt METAR LFLW 181330Z AUTO 30008KT 250V350 9999 FEW034/// SCT045/// BKN060/// ///CB 21/13 Q1016 TEMPO SHRA
15:00
V
21 °C 10 km+ 3.400 ft 310° 310° 10 kt METAR LFLW 181300Z AUTO 31010KT 270V350 9999 BKN034/// BKN054/// ///CB 21/13 Q1016 TEMPO SHRA
09:00
L
14 °C 10 km+ 300 ft 290° 290° 5 kt METAR LFLW 180700Z AUTO 29005KT 260V320 9999 OVC003 14/14 Q1015 TEMPO 2000 BR VV///
08:30
L
14 °C 600 m - 290° 290° 5 kt METAR LFLW 180630Z AUTO 29005KT 260V320 0600 R15/0900U FG VV/// 14/13 Q1015 BECMG 9999 NSW BKN030
08:00
L
14 °C 1,4 km - 300° 300° 4 kt METAR LFLW 180600Z AUTO 30004KT 260V330 4000 1400 R15/1800D BR VV/// 14/13 Q1015 TEMPO BKN003 BECMG 9999 NSW
07:30
V
13 °C 10 km+ 3.600 ft Var Var 2 kt METAR LFLW 180530Z AUTO VRB02KT 9999 FEW002 BKN036 OVC042 13/13 Q1015 TEMPO BKN003
07:00
V
13 °C 10 km+ 3.600 ft Var Var 2 kt METAR LFLW 180500Z AUTO VRB02KT 9999 FEW007 OVC036 13/12 Q1015
06:30
V
12 °C 10 km+ 3.100 ft Var Var 2 kt METAR LFLW 180430Z AUTO VRB02KT 9999 SCT006 OVC031 12/12 Q1015
06:00
I
11 °C 10 km+ 700 ft Var 000° 0 kt METAR LFLW 180400Z AUTO 00000KT 9999 FEW001 BKN007 BKN023 11/11 Q1015
05:30
M
12 °C 10 km+ 2.000 ft Var Var 3 kt METAR LFLW 180330Z AUTO VRB03KT 9999 SCT007 BKN020 12/11 Q1015
05:00
V
12 °C 10 km+ - 050° 050° 2 kt METAR LFLW 180300Z AUTO 05002KT CAVOK 12/11 Q1015
04:30
V
12 °C 10 km+ - Var Var 2 kt METAR LFLW 180230Z AUTO VRB02KT CAVOK 12/12 Q1015
04:00
V
12 °C 10 km+ - 030° 030° 1 kt METAR LFLW 180200Z AUTO 03001KT 9999 FEW044 12/11 Q1015
03:30
V
13 °C 10 km+ - 060° 060° 1 kt METAR LFLW 180130Z AUTO 06001KT CAVOK 13/13 Q1015
03:00
V
13 °C 10 km+ - 140° 140° 1 kt METAR LFLW 180100Z AUTO 14001KT CAVOK 13/12 Q1015
02:30
V
13 °C 10 km+ - 250° 250° 1 kt METAR LFLW 180030Z AUTO 25001KT CAVOK 13/12 Q1015
01:30
V
15 °C 10 km+ - 260° 260° 1 kt METAR LFLW 172330Z AUTO 26001KT CAVOK 15/13 Q1016
01:00
V
15 °C 10 km+ - Var Var 3 kt METAR LFLW 172300Z AUTO VRB03KT CAVOK 15/13 Q1016
00:30
V
15 °C 10 km+ - 230° 230° 3 kt METAR LFLW 172230Z AUTO 23003KT 9999 ///TCU 15/13 Q1016
00:00
V
16 °C 10 km+ - Var Var 2 kt METAR LFLW 172200Z AUTO VRB02KT CAVOK 16/13 Q1016

17 de agosto de 2022

Hora Código Tiempo Temp. Visibilidad Cielo nuboso Viento METAR/SPECI
23:30
V
16 °C 10 km+ - 230° 230° 3 kt METAR LFLW 172130Z AUTO 23003KT CAVOK 16/13 Q1015
23:00
V
16 °C 10 km+ - 010° 010° 4 kt METAR LFLW 172100Z AUTO 01004KT CAVOK 16/12 Q1015
22:30
V
18 °C 10 km+ - Var Var 3 kt METAR LFLW 172030Z AUTO VRB03KT CAVOK 18/13 Q1015
22:00
V
18 °C 10 km+ - 290° 290° 3 kt METAR LFLW 172000Z AUTO 29003KT 250V320 CAVOK 18/13 Q1014
21:30
V
19 °C 10 km+ - 290° 290° 4 kt METAR LFLW 171930Z AUTO 29004KT 250V340 CAVOK 19/13 Q1014
21:00
V
20 °C 10 km+ - 290° 290° 5 kt METAR LFLW 171900Z AUTO 29005KT 250V350 CAVOK 20/14 Q1014
20:30
V
20 °C 10 km+ 10.000 ft 300° 300° 5 kt METAR LFLW 171830Z AUTO 30005KT 240V340 9999 FEW001 BKN100 20/14 Q1013
20:00
V
20 °C 10 km+ 10.000 ft 300° 300° 4 kt METAR LFLW 171800Z AUTO 30004KT 260V340 9999 FEW001 SCT082 BKN100 20/14 Q1013
19:30
V
21 °C 10 km+ - 320° 320° 4 kt METAR LFLW 171730Z AUTO 32004KT 270V350 CAVOK 21/14 Q1013
19:00
V
21 °C 10 km+ 3.500 ft 310° 310° 5 kt METAR LFLW 171700Z AUTO 31005KT 280V340 9999 BKN035 BKN042 BKN052 21/14 Q1013 NOSIG
18:30
V
21 °C 10 km+ 3.400 ft 330° 330° 5 kt METAR LFLW 171630Z AUTO 33005KT 290V360 9999 BKN034 BKN043 OVC054 21/14 Q1013 NOSIG
18:00
V
21 °C 10 km+ 3.600 ft 320° 320° 7 kt METAR LFLW 171600Z AUTO 32007KT 280V360 9999 BKN036 BKN046 OVC054 21/14 Q1013 NOSIG
17:30
V
21 °C 10 km+ 4.600 ft 300° 300° 6 kt METAR LFLW 171530Z AUTO 30006KT 260V340 9999 FEW034 BKN046 OVC056 21/14 Q1012 NOSIG
17:00
V
21 °C 10 km+ 4.100 ft 300° 300° 8 kt METAR LFLW 171500Z AUTO 30008KT 260V340 9999 FEW029 BKN041 OVC048 21/14 Q1013 NOSIG
16:30
M
21 °C 10 km+ 2.900 ft 300° 300° 6 kt METAR LFLW 171430Z AUTO 30006KT 240V340 9999 BKN029 BKN037 OVC044 21/14 Q1012 NOSIG
16:00
V
21 °C 10 km+ 3.000 ft 300° 300° 7 kt METAR LFLW 171400Z AUTO 30007KT 250V340 9999 SCT023 BKN030 BKN044 21/15 Q1012 NOSIG
15:30
M
21 °C 10 km+ 2.900 ft 300° 300° 10 kt METAR LFLW 171330Z AUTO 30010KT 260V330 9999 SCT022 BKN029 BKN036 21/15 Q1012 NOSIG
15:00
V
21 °C 10 km+ 3.700 ft 280° 280° 8 kt METAR LFLW 171300Z AUTO 28008KT 240V310 9999 FEW027 OVC037 21/15 Q1012 NOSIG
14:30
V
22 °C 10 km+ 4.000 ft 270° 270° 7 kt METAR LFLW 171230Z AUTO 27007KT 240V300 9999 OVC040 22/14 Q1012 NOSIG
14:00
V
22 °C 10 km+ 4.000 ft 250° 250° 3 kt METAR LFLW 171200Z AUTO 25003KT 200V310 9999 FEW033 BKN040 BKN049 22/14 Q1012 NOSIG
13:30
V
22 °C 10 km+ 3.200 ft 260° 260° 5 kt METAR LFLW 171130Z AUTO 26005KT 210V020 9999 OVC032 22/15 Q1013 NOSIG
13:00
V
22 °C 10 km+ 3.000 ft 220° 220° 3 kt METAR LFLW 171100Z AUTO 22003KT 160V270 9999 BKN030 BKN035 BKN074 22/14 Q1013 TEMPO SHRA FEW050CB
12:30
V
22 °C 10 km+ - Var Var 3 kt METAR LFLW 171030Z AUTO VRB03KT 9999 FEW030/// SCT074/// ///TCU 22/14 Q1013 TEMPO SHRA FEW050CB
12:00
V
21 °C 10 km+ 4.900 ft 300° 300° 3 kt METAR LFLW 171000Z AUTO 30003KT 230V360 9999 BKN049/// OVC074/// ///CB 21/14 Q1013 TEMPO SHRA
11:30
V
21 °C 10 km+ - Var Var 2 kt METAR LFLW 170930Z AUTO VRB02KT 9999 ///CB 21/14 Q1013 TEMPO SHRA
11:00
V
21 °C 10 km+ - Var Var 2 kt METAR LFLW 170900Z AUTO VRB02KT 9999 ///TCU 21/14 Q1013 TEMPO SHRA FEW050CB
10:30
V
20 °C 10 km+ - Var Var 3 kt METAR LFLW 170830Z AUTO VRB03KT CAVOK 20/14 Q1013 TEMPO SHRA FEW050CB
10:00
V
18 °C 10 km+ - 100° 100° 3 kt METAR LFLW 170800Z AUTO 10003KT 070V140 9999 ///CB 18/15 Q1013 BECMG SCT030
09:30
V
17 °C 10 km+ - 090° 090° 6 kt METAR LFLW 170730Z AUTO 09006KT 9999 ///TCU 17/14 Q1013 BECMG SCT030
09:00
V
15 °C 10 km+ - 090° 090° 5 kt METAR LFLW 170700Z AUTO 09005KT 9999 ///TCU 15/14 Q1013 BECMG SCT030
08:30
V
14 °C 10 km+ - 080° 080° 6 kt METAR LFLW 170630Z AUTO 08006KT 9999 FEW054/// SCT120/// ///TCU 14/13 Q1013 BECMG SCT030
08:00
V
14 °C 10 km+ - 090° 090° 4 kt METAR LFLW 170600Z AUTO 09004KT 9999 SCT050 SCT096 14/13 Q1012 NOSIG
07:30
V
14 °C 10 km+ 5.200 ft 120° 120° 4 kt METAR LFLW 170530Z AUTO 12004KT 100V160 9999 BKN052 OVC100 14/13 Q1012
07:00
V
13 °C 10 km+ - 070° 070° 5 kt METAR LFLW 170500Z AUTO 07005KT 050V120 CAVOK 13/13 Q1012
06:30
V
13 °C 10 km+ - 100° 100° 3 kt METAR LFLW 170430Z AUTO 10003KT 060V160 CAVOK 13/12 Q1012
06:00
V
13 °C 10 km+ - 180° 180° 3 kt METAR LFLW 170400Z AUTO 18003KT 150V210 CAVOK 13/13 Q1011
05:30
V
14 °C 10 km+ - Var Var 2 kt METAR LFLW 170330Z AUTO VRB02KT CAVOK 14/14 Q1011
05:00
V
15 °C 10 km+ - Var Var 3 kt METAR LFLW 170300Z AUTO VRB03KT CAVOK 15/13 Q1012
04:30
V
15 °C 10 km+ - 030° 030° 3 kt METAR LFLW 170230Z AUTO 03003KT 330V070 CAVOK 15/13 Q1012
04:00
V
15 °C 10 km+ 3.900 ft 310° 310° 6 kt METAR LFLW 170200Z AUTO 31006KT 240V010 9999 -RA VCTS SCT007/// SCT028/// BKN039/// ///CB 15/14 Q1012
03:30
I
15 °C 2,5 km 1.800 ft 270° 270° 12 kt METAR LFLW 170130Z AUTO 27012KT 210V340 2500 R15/1300U +TSRA BR FEW006/// SCT010/// BKN018/// ///CB 15/15 Q1012
03:00
V
17 °C 10 km+ 5.200 ft Var Var 2 kt METAR LFLW 170100Z AUTO VRB02KT 9999 -RA VCTS FEW041/// BKN052/// BKN074/// ///CB 17/15 Q1011
02:30
V
17 °C 10 km+ 7.600 ft 090° 090° 5 kt METAR LFLW 170030Z AUTO 09005KT 070V130 9999 TS FEW054/// BKN076/// OVC090/// ///CB 17/15 Q1011
02:00
V
17 °C 10 km+ 5.200 ft 090° 090° 4 kt METAR LFLW 170000Z AUTO 09004KT 9999 FEW046/// BKN052/// BKN096/// ///CB 17/15 Q1011
01:30
V
17 °C 10 km+ 8.800 ft 100° 100° 7 kt METAR LFLW 162330Z AUTO 10007KT 9999 FEW050 BKN088 OVC130 17/15 Q1011
01:00
V
16 °C 10 km+ 5.400 ft 090° 090° 7 kt METAR LFLW 162300Z AUTO 09007KT 9999 SCT042 BKN054 16/15 Q1011
00:30
V
16 °C 10 km+ - 070° 070° 10 kt METAR LFLW 162230Z AUTO 07010KT 9999 ///CB 16/15 Q1011
00:00
V
16 °C 10 km+ - 080° 080° 8 kt METAR LFLW 162200Z AUTO 08008KT 9999 ///CB 16/15 Q1011

16 de agosto de 2022

Hora Código Tiempo Temp. Visibilidad Cielo nuboso Viento METAR/SPECI
23:30
V
16 °C 10 km+ - 100° 100° 7 kt METAR LFLW 162130Z AUTO 10007KT 9999 ///CB 16/16 Q1012
23:00
V
16 °C 10 km+ - 010° 010° 4 kt METAR LFLW 162100Z AUTO 01004KT 290V050 9999 ///CB 16/15 Q1013
22:30
V
17 °C 10 km+ - Var Var 1 kt METAR LFLW 162030Z AUTO VRB01KT 9999 ///CB 17/15 Q1012
22:00
V
17 °C 10 km+ - Var Var 2 kt METAR LFLW 162000Z AUTO VRB02KT 9999 ///TCU 17/16 Q1012
21:30
V
17 °C 10 km+ - Var Var 3 kt METAR LFLW 161930Z AUTO VRB03KT 9999 ///TCU 17/16 Q1011
21:00
V
17 °C 10 km+ - 020° 020° 7 kt METAR LFLW 161900Z AUTO 02007KT 360V060 9999 ///CB 17/15 Q1011
20:30
V
17 °C 10 km+ 6.200 ft 020° 020° 6 kt METAR LFLW 161830Z AUTO 02006KT 9999 -RA FEW018/// BKN062/// BKN086/// ///CB 17/16 Q1011
20:00
I
17 °C 4,1 km 4.600 ft 270° 270° 8 kt METAR LFLW 161800Z AUTO 27008KT 220V320 4100 TSRA BR FEW008/// BKN046/// OVC058/// ///CB 17/15 Q1012
19:30
M
19 °C 7 km 6.000 ft 150° 150° 11 - 23 kt METAR LFLW 161730Z AUTO 15011G23KT 110V200 7000 TSRA SCT036/// SCT049/// BKN060/// ///CB 19/16 Q1011
19:00
V
20 °C 10 km+ - 330° 330° 2 kt METAR LFLW 161700Z AUTO 33002KT 9999 VCTS ///CB 20/17 Q1010 TEMPO VRB20G35KT 2500 TSRA
18:30
V
20 °C 10 km+ - 110° 110° 4 kt METAR LFLW 161630Z AUTO 11004KT 040V140 9999 ///CB 20/17 Q1010 TEMPO VRB20G35KT 2500 TSRA
18:00
V
21 °C 10 km+ - 030° 030° 5 kt METAR LFLW 161600Z AUTO 03005KT 340V070 9999 ///CB 21/16 Q1010 TEMPO VRB20G35KT 2500 TSRA
17:30
V
21 °C 10 km+ 8.000 ft 030° 030° 3 kt METAR LFLW 161530Z AUTO 03003KT 340V070 9999 -RA VCTS FEW052/// SCT068/// BKN080/// ///CB 21/15 Q1010 TEMPO VRB20G35KT 2500 TSRA
17:00
V
23 °C 10 km+ 8.200 ft 330° 330° 5 kt METAR LFLW 161500Z AUTO 33005KT 270V010 9999 -RA VCTS FEW024/// BKN082/// BKN120/// ///CB 23/14 Q1009 TEMPO VRB20G35KT 2500 TSRA
16:30
V
24 °C 10 km+ 11.000 ft 280° 280° 12 kt METAR LFLW 161430Z AUTO 28012KT 240V320 9999 VCTS FEW035/// SCT094/// OVC110/// ///CB 24/14 Q1008 TEMPO VRB20G35KT 2500 TSRA
16:00
V
28 °C 10 km+ - 170° 170° 9 kt METAR LFLW 161400Z AUTO 17009KT 140V200 9999 VCTS ///CB 28/10 Q1008 TEMPO VRB20G35KT 2500 TSRA
Datos más antiguos

Nosotros y terceros seguimos tu comportamiento en Internet en nuestro sitio web con cookies. Si continúas, asumimos que estás de acuerdo con nuestra política de cookies. Más información